createdAt,value
2018-09-02T00:00:58.972Z,926.84
2018-09-02T00:02:30.947Z,926.82
2018-09-02T00:04:02.117Z,926.82
2018-09-02T00:05:33.689Z,926.83
2018-09-02T00:07:05.263Z,926.82
2018-09-02T00:08:36.933Z,926.88
2018-09-02T00:10:08.407Z,926.88
2018-09-02T00:11:40.186Z,926.88
2018-09-02T00:13:11.555Z,926.91
2018-09-02T00:14:43.126Z,926.88
2018-09-02T00:16:14.699Z,926.89
2018-09-02T00:17:46.268Z,926.89
2018-09-02T00:19:17.842Z,926.87
2018-09-02T00:20:50.017Z,926.88
2018-09-02T00:22:20.987Z,926.88
2018-09-02T00:23:52.563Z,926.86
2018-09-02T00:25:24.130Z,926.86
2018-09-02T00:26:55.855Z,926.89
2018-09-02T00:28:27.276Z,926.87
2018-09-02T00:29:58.848Z,926.89
2018-09-02T00:31:30.423Z,926.84
2018-09-02T00:33:02.134Z,926.89
2018-09-02T00:34:33.566Z,926.87
2018-09-02T00:36:05.139Z,926.90
2018-09-02T00:37:36.712Z,926.88
2018-09-02T00:39:08.535Z,926.87
2018-09-02T00:40:40.092Z,926.89
2018-09-02T00:42:11.429Z,926.88
2018-09-02T00:43:43.001Z,926.91
2018-09-02T00:45:14.576Z,926.91
2018-09-02T00:46:46.148Z,926.94
2018-09-02T00:48:17.717Z,926.91
2018-09-02T00:49:49.290Z,926.95
2018-09-02T00:51:20.862Z,926.97
2018-09-02T00:52:52.434Z,926.96
2018-09-02T00:54:24.007Z,926.95
2018-09-02T00:55:55.578Z,926.99
2018-09-02T00:57:27.452Z,926.95
2018-09-02T00:58:58.723Z,926.94
2018-09-02T01:00:30.298Z,926.94
2018-09-02T01:02:01.870Z,926.95
2018-09-02T01:03:33.541Z,926.96
2018-09-02T01:05:05.014Z,926.97
2018-09-02T01:06:36.591Z,926.95
2018-09-02T01:08:08.159Z,926.96
2018-09-02T01:09:39.731Z,926.98
2018-09-02T01:11:11.303Z,926.93
2018-09-02T01:12:42.877Z,926.96
2018-09-02T01:14:14.453Z,926.98
2018-09-02T01:15:46.277Z,926.95
2018-09-02T01:17:17.594Z,926.95
2018-09-02T01:18:49.167Z,926.95
2018-09-02T01:20:20.745Z,926.97
2018-09-02T01:21:52.613Z,926.99
2018-09-02T01:23:23.884Z,926.99
2018-09-02T01:24:55.458Z,926.95
2018-09-02T01:26:27.029Z,926.94
2018-09-02T01:27:58.702Z,926.95
2018-09-02T01:29:30.174Z,926.95
2018-09-02T01:31:01.748Z,926.95
2018-09-02T01:32:33.320Z,926.96
2018-09-02T01:34:05.100Z,926.97
2018-09-02T01:35:36.465Z,926.97
2018-09-02T01:37:08.038Z,927.00
2018-09-02T01:38:39.611Z,927.01
2018-09-02T01:40:11.283Z,926.97
2018-09-02T01:41:42.757Z,926.98
2018-09-02T01:43:14.328Z,926.97
2018-09-02T01:44:45.902Z,926.93
2018-09-02T01:46:17.674Z,926.88
2018-09-02T01:47:49.046Z,926.88
2018-09-02T01:49:20.619Z,926.90
2018-09-02T01:50:52.191Z,926.85
2018-09-02T01:52:24.165Z,926.86
2018-09-02T01:53:55.338Z,926.87
2018-09-02T01:55:26.909Z,926.84
2018-09-02T01:56:58.504Z,926.81
2018-09-02T01:58:30.054Z,926.84
2018-09-02T02:00:01.626Z,926.83
2018-09-02T02:01:33.203Z,926.83
2018-09-02T02:03:04.774Z,926.84
2018-09-02T02:04:36.445Z,926.88
2018-09-02T02:06:07.918Z,926.87
2018-09-02T02:07:39.513Z,926.83
2018-09-02T02:09:11.062Z,926.78
2018-09-02T02:10:42.836Z,926.77
2018-09-02T02:12:14.208Z,926.76
2018-09-02T02:13:45.780Z,926.71
2018-09-02T02:15:17.353Z,926.69
2018-09-02T02:16:48.924Z,926.64
2018-09-02T02:18:20.586Z,926.61
2018-09-02T02:19:52.068Z,926.55
2018-09-02T02:21:23.640Z,926.56
2018-09-02T02:22:55.513Z,926.54
2018-09-02T02:24:26.786Z,926.54
2018-09-02T02:25:58.357Z,926.54
2018-09-02T02:27:30.428Z,926.54
2018-09-02T02:29:01.802Z,926.54
2018-09-02T02:30:33.075Z,926.56
2018-09-02T02:32:04.793Z,926.58
2018-09-02T02:33:36.217Z,926.54
2018-09-02T02:35:07.888Z,926.57
2018-09-02T02:36:39.358Z,926.55
2018-09-02T02:38:10.934Z,926.51
2018-09-02T02:39:42.506Z,926.50
2018-09-02T02:41:14.174Z,926.48
2018-09-02T02:42:45.647Z,926.42
2018-09-02T02:44:17.217Z,926.41
2018-09-02T02:45:48.789Z,926.40
2018-09-02T02:47:20.461Z,926.43
2018-09-02T02:48:51.933Z,926.38
2018-09-02T02:50:23.504Z,926.38
2018-09-02T02:51:55.075Z,926.32
2018-09-02T02:53:26.947Z,926.35
2018-09-02T02:54:58.219Z,926.28
2018-09-02T02:56:29.790Z,926.32
2018-09-02T02:58:01.362Z,926.32
2018-09-02T02:59:33.133Z,926.36
2018-09-02T03:01:04.509Z,926.37
2018-09-02T03:02:36.076Z,926.35
2018-09-02T03:04:07.650Z,926.35
2018-09-02T03:05:39.469Z,926.39
2018-09-02T03:07:10.791Z,926.35
2018-09-02T03:08:42.361Z,926.36
2018-09-02T03:10:13.937Z,926.31
2018-09-02T03:11:45.806Z,926.27
2018-09-02T03:13:17.076Z,926.21
2018-09-02T03:14:48.648Z,926.21
2018-09-02T03:16:20.221Z,926.21
2018-09-02T03:17:51.795Z,926.22
2018-09-02T03:19:23.363Z,926.19
2018-09-02T03:20:54.933Z,926.22
2018-09-02T03:22:26.504Z,926.18
2018-09-02T03:23:58.928Z,926.13
2018-09-02T03:25:29.648Z,926.15
2018-09-02T03:27:01.221Z,926.10
2018-09-02T03:30:04.662Z,926.05
2018-09-02T03:31:35.934Z,925.99
2018-09-02T03:33:07.504Z,925.98
2018-09-02T03:34:39.075Z,925.99
2018-09-02T03:36:10.746Z,925.97
2018-09-02T03:37:42.218Z,925.95
2018-09-02T03:39:13.789Z,925.95
2018-09-02T03:40:45.359Z,925.96
2018-09-02T03:42:17.182Z,925.92
2018-09-02T03:43:48.502Z,925.95
2018-09-02T03:45:20.085Z,925.96
2018-09-02T03:46:51.644Z,925.99
2018-09-02T03:48:23.215Z,925.98
2018-09-02T03:49:54.787Z,926.01
2018-09-02T03:51:26.358Z,926.02
2018-09-02T03:52:57.928Z,925.96
2018-09-02T03:54:29.801Z,925.95
2018-09-02T03:56:01.073Z,925.92
2018-09-02T03:57:32.642Z,925.87
2018-09-02T03:59:04.215Z,925.86
2018-09-02T04:00:35.885Z,925.81
2018-09-02T04:02:07.356Z,925.78
2018-09-02T04:03:38.927Z,925.74
2018-09-02T04:05:10.498Z,925.72
2018-09-02T04:06:42.218Z,925.70
2018-09-02T04:08:13.640Z,925.67
2018-09-02T04:09:45.212Z,925.68
2018-09-02T04:11:16.846Z,925.64
2018-09-02T04:12:48.354Z,925.61
2018-09-02T04:14:19.923Z,925.62
2018-09-02T04:15:51.495Z,925.61
2018-09-02T04:17:23.065Z,925.56
2018-09-02T04:18:54.736Z,925.52
2018-09-02T04:20:26.207Z,925.49
2018-09-02T04:21:57.778Z,925.47
2018-09-02T04:23:29.348Z,925.48
2018-09-02T04:25:01.220Z,925.47
2018-09-02T04:26:32.489Z,925.45
2018-09-02T04:28:04.060Z,925.45
2018-09-02T04:29:35.631Z,925.49
2018-09-02T04:31:07.201Z,925.44
2018-09-02T04:32:38.773Z,925.46
2018-09-02T04:34:10.345Z,925.37
2018-09-02T04:35:41.913Z,925.35
2018-09-02T04:37:13.636Z,925.35
2018-09-02T04:38:45.056Z,925.36
2018-09-02T04:40:16.630Z,925.38
2018-09-02T04:41:48.197Z,925.36
2018-09-02T04:43:19.871Z,925.38
2018-09-02T04:46:22.910Z,925.34
2018-09-02T04:47:54.481Z,925.41
2018-09-02T04:49:26.051Z,925.37
2018-09-02T04:52:29.194Z,925.34
2018-09-02T04:54:00.764Z,925.33
2018-09-02T04:55:32.736Z,925.29
2018-09-02T04:57:03.906Z,925.31
2018-09-02T04:58:35.477Z,925.25
2018-09-02T05:00:07.701Z,925.22
2018-09-02T05:01:38.624Z,925.19
2018-09-02T05:03:10.241Z,925.18
2018-09-02T05:04:41.761Z,925.18
2018-09-02T05:06:13.332Z,925.19
2018-09-02T05:07:44.904Z,925.16
2018-09-02T05:09:16.477Z,925.14
2018-09-02T05:10:48.048Z,925.12
2018-09-02T05:12:19.617Z,925.04
2018-09-02T05:13:51.438Z,925.07
2018-09-02T05:15:22.759Z,925.07
2018-09-02T05:16:54.331Z,925.04
2018-09-02T05:18:25.901Z,925.00
2018-09-02T05:19:57.472Z,924.97
2018-09-02T05:21:29.043Z,924.94
2018-09-02T05:23:00.616Z,924.94
2018-09-02T05:24:32.186Z,924.93
2018-09-02T05:26:04.057Z,924.91
2018-09-02T05:27:35.329Z,924.91
2018-09-02T05:29:06.901Z,924.86
2018-09-02T05:30:38.470Z,924.87
2018-09-02T05:32:10.191Z,924.80
2018-09-02T05:35:13.182Z,924.78
2018-09-02T05:36:44.788Z,924.76
2018-09-02T05:38:16.324Z,924.78
2018-09-02T05:39:47.895Z,924.78
2018-09-02T05:41:19.466Z,924.77
2018-09-02T05:42:51.038Z,924.73
2018-09-02T05:44:22.708Z,924.76
2018-09-02T05:45:54.178Z,924.73
2018-09-02T05:47:25.748Z,924.75
2018-09-02T05:48:57.321Z,924.71
2018-09-02T05:50:28.989Z,924.69
2018-09-02T05:52:00.461Z,924.67
2018-09-02T05:53:32.031Z,924.72
2018-09-02T05:55:03.601Z,924.75
2018-09-02T05:56:35.472Z,924.69
2018-09-02T05:58:06.743Z,924.72
2018-09-02T05:59:38.318Z,924.68
2018-09-02T06:01:09.884Z,924.68
2018-09-02T06:02:41.458Z,924.68
2018-09-02T06:04:13.029Z,924.65
2018-09-02T06:05:44.601Z,924.69
2018-09-02T06:07:16.168Z,924.68
2018-09-02T06:08:47.839Z,924.64
2018-09-02T06:10:19.309Z,924.64
2018-09-02T06:11:50.880Z,924.60
2018-09-02T06:13:22.451Z,924.63
2018-09-02T06:14:54.024Z,924.54
2018-09-02T06:16:25.592Z,924.56
2018-09-02T06:17:57.163Z,924.56
2018-09-02T06:19:28.742Z,924.52
2018-09-02T06:21:00.305Z,924.50
2018-09-02T06:22:31.876Z,924.49
2018-09-02T06:24:03.446Z,924.53
2018-09-02T06:25:35.017Z,924.54
2018-09-02T06:27:06.990Z,924.52
2018-09-02T06:28:38.158Z,924.45
2018-09-02T06:30:09.856Z,924.43
2018-09-02T06:31:41.300Z,924.42
2018-09-02T06:33:12.872Z,924.46
2018-09-02T06:34:44.441Z,924.41
2018-09-02T06:36:16.014Z,924.39
2018-09-02T06:37:47.583Z,924.39
2018-09-02T06:39:19.493Z,924.38
2018-09-02T06:40:51.028Z,924.38
2018-09-02T06:42:22.295Z,924.35
2018-09-02T06:43:53.869Z,924.39
2018-09-02T06:45:26.438Z,924.42
2018-09-02T06:46:57.007Z,924.39
2018-09-02T06:48:28.577Z,924.33
2018-09-02T06:50:00.149Z,924.40
2018-09-02T06:51:31.719Z,924.36
2018-09-02T06:53:03.290Z,924.41
2018-09-02T06:54:34.862Z,924.40
2018-09-02T06:56:06.432Z,924.43
2018-09-02T06:57:38.303Z,924.43
2018-09-02T06:59:09.574Z,924.40
2018-09-02T07:00:41.145Z,924.40
2018-09-02T07:02:12.715Z,924.35
2018-09-02T07:03:44.387Z,924.38
2018-09-02T07:05:15.857Z,924.37
2018-09-02T07:06:47.428Z,924.39
2018-09-02T07:08:19.000Z,924.38
2018-09-02T07:09:50.571Z,924.37
2018-09-02T07:11:22.141Z,924.39
2018-09-02T07:12:53.714Z,924.37
2018-09-02T07:14:25.297Z,924.38
2018-09-02T07:15:56.956Z,924.37
2018-09-02T07:17:28.425Z,924.34
2018-09-02T07:18:59.996Z,924.36
2018-09-02T07:20:31.569Z,924.42
2018-09-02T07:22:03.289Z,924.40
2018-09-02T07:23:34.709Z,924.36
2018-09-02T07:25:06.281Z,924.34
2018-09-02T07:26:37.851Z,924.35
2018-09-02T07:28:09.723Z,924.41
2018-09-02T07:29:40.993Z,924.39
2018-09-02T07:31:12.564Z,924.36
2018-09-02T07:32:44.135Z,924.42
2018-09-02T07:34:15.806Z,924.44
2018-09-02T07:35:47.277Z,924.42
2018-09-02T07:37:18.848Z,924.44
2018-09-02T07:38:50.420Z,924.43
2018-09-02T07:40:22.290Z,924.37
2018-09-02T07:41:53.562Z,924.39
2018-09-02T07:43:25.133Z,924.39
2018-09-02T07:44:56.702Z,924.40
2018-09-02T07:46:28.423Z,924.36
2018-09-02T07:47:59.844Z,924.37
2018-09-02T07:49:31.416Z,924.41
2018-09-02T07:51:02.986Z,924.34
2018-09-02T07:52:34.707Z,924.32
2018-09-02T07:54:06.130Z,924.31
2018-09-02T07:55:37.700Z,924.33
2018-09-02T07:57:09.270Z,924.35
2018-09-02T07:58:41.252Z,924.25
2018-09-02T08:00:12.416Z,924.34
2018-09-02T08:01:43.983Z,924.36
2018-09-02T08:03:15.553Z,924.34
2018-09-02T08:06:18.695Z,924.36
2018-09-02T08:07:50.266Z,924.35
2018-09-02T08:09:21.839Z,924.35
2018-09-02T08:10:53.408Z,924.39
2018-09-02T08:12:25.115Z,924.37
2018-09-02T08:13:56.549Z,924.34
2018-09-02T08:15:28.120Z,924.33
2018-09-02T08:16:59.693Z,924.28
2018-09-02T08:18:31.366Z,924.24
2018-09-02T08:20:02.834Z,924.27
2018-09-02T08:21:34.407Z,924.24
2018-09-02T08:23:05.980Z,924.27
2018-09-02T08:24:37.547Z,924.26
2018-09-02T08:26:09.117Z,924.30
2018-09-02T08:27:40.994Z,924.26
2018-09-02T08:29:12.259Z,924.24
2018-09-02T08:30:43.831Z,924.27
2018-09-02T08:32:15.402Z,924.28
2018-09-02T08:33:46.972Z,924.30
2018-09-02T08:35:18.544Z,924.35
2018-09-02T08:36:50.266Z,924.36
2018-09-02T08:38:21.691Z,924.38
2018-09-02T08:39:53.257Z,924.39
2018-09-02T08:41:24.828Z,924.44
2018-09-02T08:42:56.701Z,924.44
2018-09-02T08:44:27.969Z,924.46
2018-09-02T08:45:59.540Z,924.48
2018-09-02T08:47:31.110Z,924.48
2018-09-02T08:49:02.683Z,924.46
2018-09-02T08:50:34.363Z,924.50
2018-09-02T08:52:05.825Z,924.48
2018-09-02T08:53:37.394Z,924.48
2018-09-02T08:55:09.066Z,924.48
2018-09-02T08:56:40.536Z,924.50
2018-09-02T08:58:12.107Z,924.51
2018-09-02T08:59:43.678Z,924.52
2018-09-02T09:01:15.250Z,924.60
2018-09-02T09:02:46.822Z,924.59
2018-09-02T09:04:18.393Z,924.69
2018-09-02T09:05:49.962Z,924.64
2018-09-02T09:07:21.539Z,924.64
2018-09-02T09:10:24.675Z,924.66
2018-09-02T09:11:56.247Z,924.63
2018-09-02T09:13:27.968Z,924.57
2018-09-02T09:14:59.388Z,924.58
2018-09-02T09:16:31.002Z,924.56
2018-09-02T09:18:02.531Z,924.58
2018-09-02T09:19:34.101Z,924.60
2018-09-02T09:21:05.672Z,924.58
2018-09-02T09:22:37.246Z,924.57
2018-09-02T09:24:08.892Z,924.54
2018-09-02T09:25:40.929Z,924.53
2018-09-02T09:27:11.957Z,924.55
2018-09-02T09:28:43.527Z,924.61
2018-09-02T09:30:15.102Z,924.57
2018-09-02T09:31:47.070Z,924.58
2018-09-02T09:33:18.240Z,924.62
2018-09-02T09:34:50.019Z,924.60
2018-09-02T09:36:21.383Z,924.60
2018-09-02T09:37:52.956Z,924.62
2018-09-02T09:39:24.527Z,924.57
2018-09-02T09:40:56.097Z,924.67
2018-09-02T09:42:27.972Z,924.68
2018-09-02T09:43:59.240Z,924.71
2018-09-02T09:45:30.813Z,924.71
2018-09-02T09:47:02.689Z,924.77
2018-09-02T09:48:33.957Z,924.72
2018-09-02T09:50:05.633Z,924.87
2018-09-02T09:51:37.102Z,924.85
2018-09-02T09:54:40.247Z,924.99
2018-09-02T09:56:12.024Z,924.97
2018-09-02T09:57:43.395Z,924.98
2018-09-02T09:59:14.967Z,925.01
2018-09-02T10:00:46.541Z,925.02
2018-09-02T10:02:18.416Z,925.02
2018-09-02T10:05:21.265Z,924.97
2018-09-02T10:09:56.116Z,925.05
2018-09-02T10:11:27.564Z,925.08
2018-09-02T10:12:59.138Z,925.10
2018-09-02T10:14:30.713Z,925.09
2018-09-02T10:16:02.289Z,925.14
2018-09-02T10:20:37.222Z,925.10
2018-09-02T10:22:08.794Z,925.12
2018-09-02T10:23:41.114Z,925.13
2018-09-02T10:25:11.747Z,925.16
2018-09-02T10:26:44.065Z,925.12
2018-09-02T10:28:14.996Z,925.16
2018-09-02T10:29:46.472Z,925.11
2018-09-02T10:32:49.628Z,925.16
2018-09-02T10:34:21.201Z,925.19
2018-09-02T10:35:52.780Z,925.18
2018-09-02T10:37:24.355Z,925.20
2018-09-02T10:40:28.052Z,925.16
2018-09-02T10:41:59.087Z,925.17
2018-09-02T10:43:30.664Z,925.20
2018-09-02T10:48:05.496Z,925.23
2018-09-02T10:49:36.983Z,925.23
2018-09-02T10:51:08.753Z,925.25
2018-09-02T10:54:11.705Z,925.24
2018-09-02T10:55:43.283Z,925.25
2018-09-02T10:57:14.860Z,925.20
2018-09-02T10:58:46.439Z,925.16
2018-09-02T11:00:18.016Z,925.19
2018-09-02T11:01:49.899Z,925.16
2018-09-02T11:03:21.173Z,925.21
2018-09-02T11:04:52.955Z,925.21
2018-09-02T11:06:24.431Z,925.21
2018-09-02T11:09:28.030Z,925.14
2018-09-02T11:10:59.065Z,925.22
2018-09-02T11:14:02.534Z,925.15
2018-09-02T11:17:05.383Z,925.19
2018-09-02T11:18:37.263Z,925.13
2018-09-02T11:20:08.539Z,925.12
2018-09-02T11:23:11.703Z,925.08
2018-09-02T11:24:43.482Z,925.12
2018-09-02T11:26:15.009Z,925.13
2018-09-02T11:29:18.023Z,925.19
2018-09-02T11:30:49.599Z,925.23
2018-09-02T11:32:21.179Z,925.25
2018-09-02T11:35:24.339Z,925.27
2018-09-02T11:36:55.920Z,925.24
2018-09-02T11:38:27.501Z,925.24
2018-09-02T11:39:59.283Z,925.21
2018-09-02T11:41:30.661Z,925.23
2018-09-02T11:46:06.008Z,925.31
2018-09-02T11:47:36.986Z,925.30
2018-09-02T11:52:11.731Z,925.37
2018-09-02T11:53:43.312Z,925.47
2018-09-02T11:55:14.898Z,925.48
2018-09-02T11:58:18.057Z,925.54
2018-09-02T11:59:49.639Z,925.57
2018-09-02T12:01:21.226Z,925.58
2018-09-02T12:04:25.241Z,925.65
2018-09-02T12:05:55.967Z,925.75
2018-09-02T12:07:28.093Z,925.74
2018-09-02T12:08:59.133Z,925.73
2018-09-02T12:10:30.917Z,925.73
2018-09-02T12:12:02.601Z,925.76
2018-09-02T12:15:05.463Z,925.70
2018-09-02T12:16:37.147Z,925.68
2018-09-02T12:18:08.632Z,925.70
2018-09-02T12:19:40.213Z,925.71
2018-09-02T12:22:43.481Z,925.68
2018-09-02T12:24:14.962Z,925.75
2018-09-02T12:25:46.547Z,925.73
2018-09-02T12:28:49.721Z,925.67
2018-09-02T12:30:21.500Z,925.71
2018-09-02T12:31:52.879Z,925.69
2018-09-02T12:34:56.249Z,925.70
2018-09-02T12:36:27.630Z,925.72
2018-09-02T12:37:59.416Z,925.73
2018-09-02T12:39:30.802Z,925.74
2018-09-02T12:41:02.581Z,925.79
2018-09-02T12:42:33.965Z,925.83
2018-09-02T12:44:05.853Z,925.83
2018-09-02T12:45:37.132Z,925.80
2018-09-02T12:47:08.717Z,925.81
2018-09-02T12:48:40.304Z,925.88
2018-09-02T12:54:46.941Z,925.79
2018-09-02T12:57:50.415Z,925.80
2018-09-02T12:59:21.394Z,925.72
2018-09-02T13:02:24.814Z,925.71
2018-09-02T13:05:27.733Z,925.72
2018-09-02T13:07:00.266Z,925.70
2018-09-02T13:08:31.506Z,925.69
2018-09-02T13:10:02.489Z,925.66
2018-09-02T13:13:06.204Z,925.68
2018-09-02T13:14:37.749Z,925.71
2018-09-02T13:16:08.831Z,925.70
2018-09-02T13:17:40.721Z,925.73
2018-09-02T13:19:12.003Z,925.72
2018-09-02T13:20:43.990Z,925.74
2018-09-02T13:22:15.173Z,925.72
2018-09-02T13:23:46.797Z,925.72
2018-09-02T13:25:18.348Z,925.73
2018-09-02T13:26:50.613Z,925.72
2018-09-02T13:28:22.060Z,925.72
2018-09-02T13:29:53.106Z,925.70
2018-09-02T13:31:24.692Z,925.63
2018-09-02T13:35:59.651Z,925.57
2018-09-02T13:37:31.340Z,925.57
2018-09-02T13:39:02.622Z,925.54
2018-09-02T13:40:34.233Z,925.55
2018-09-02T13:42:06.440Z,925.56
2018-09-02T13:43:37.987Z,925.61
2018-09-02T13:45:08.969Z,925.56
2018-09-02T13:48:12.241Z,925.57
2018-09-02T13:49:43.726Z,925.50
2018-09-02T13:51:15.318Z,925.51
2018-09-02T13:52:46.899Z,925.47
2018-09-02T13:54:18.748Z,925.45
2018-09-02T13:57:21.660Z,925.41
2018-09-02T13:58:53.244Z,925.39
2018-09-02T14:01:56.769Z,925.27
2018-09-02T14:04:59.790Z,925.26
2018-09-02T14:06:31.175Z,925.25
2018-09-02T14:11:06.136Z,925.19
2018-09-02T14:12:37.522Z,925.22
2018-09-02T14:14:09.108Z,925.24
2018-09-02T14:15:40.694Z,925.17
2018-09-02T14:17:12.382Z,925.08
2018-09-02T14:18:44.071Z,925.08
2018-09-02T14:20:15.458Z,925.05
2018-09-02T14:21:47.042Z,925.07
2018-09-02T14:23:18.740Z,925.09
2018-09-02T14:26:21.802Z,925.04
2018-09-02T14:27:53.389Z,925.01
2018-09-02T14:29:25.277Z,925.05
2018-09-02T14:33:59.737Z,924.96
2018-09-02T14:35:31.423Z,924.95
2018-09-02T14:37:02.911Z,924.79
2018-09-02T14:41:38.024Z,924.83
2018-09-02T14:43:09.463Z,924.80
2018-09-02T14:44:40.846Z,924.79
2018-09-02T14:46:12.975Z,924.77
2018-09-02T14:47:44.273Z,924.75
2018-09-02T14:49:15.910Z,924.61
2018-09-02T14:50:47.285Z,924.56
2018-09-02T14:52:19.324Z,924.63
2018-09-02T14:53:50.872Z,924.56
2018-09-02T14:55:21.955Z,924.58
2018-09-02T14:56:53.747Z,924.58
2018-09-02T14:58:25.134Z,924.55
2018-09-02T14:59:57.072Z,924.52
2018-09-02T15:01:28.306Z,924.53
2018-09-02T15:04:31.482Z,924.50
2018-09-02T15:06:03.323Z,924.45
2018-09-02T15:07:34.663Z,924.46
2018-09-02T15:09:06.549Z,924.44
2018-09-02T15:10:38.037Z,924.51
2018-09-02T15:12:09.970Z,924.31
2018-09-02T15:15:12.594Z,924.31
2018-09-02T15:18:15.880Z,924.33
2018-09-02T15:19:47.360Z,924.33
2018-09-02T15:22:50.523Z,924.29
2018-09-02T15:24:22.850Z,924.30
2018-09-02T15:25:53.693Z,924.26
2018-09-02T15:27:25.489Z,924.19
2018-09-02T15:30:29.056Z,924.19
2018-09-02T15:33:32.571Z,924.05
2018-09-02T15:36:34.945Z,924.08
2018-09-02T15:38:06.588Z,924.06
2018-09-02T15:39:38.122Z,924.06
2018-09-02T15:41:09.860Z,924.03
2018-09-02T15:42:41.443Z,923.99
2018-09-02T15:45:44.823Z,924.07
2018-09-02T15:48:48.196Z,924.08
2018-09-02T15:50:19.075Z,924.01
2018-09-02T15:53:22.249Z,923.97
2018-09-02T15:54:54.142Z,923.95
2018-09-02T15:56:25.427Z,923.97
2018-09-02T15:59:28.606Z,923.95
2018-09-02T16:01:00.668Z,924.02
2018-09-02T16:02:31.787Z,923.95
2018-09-02T16:04:03.983Z,923.89
2018-09-02T16:05:34.964Z,923.91
2018-09-02T16:07:06.654Z,923.87
2018-09-02T16:10:09.728Z,923.90
2018-09-02T16:11:41.314Z,923.81
2018-09-02T16:13:13.000Z,924.06
2018-09-02T16:14:44.992Z,923.73
2018-09-02T16:16:16.074Z,923.78
2018-09-02T16:19:19.494Z,923.67
2018-09-02T16:20:50.832Z,923.69
2018-09-02T16:22:22.416Z,923.65
2018-09-02T16:23:54.002Z,923.65
2018-09-02T16:25:25.688Z,923.76
2018-09-02T16:26:57.174Z,923.74
2018-09-02T16:28:28.759Z,923.63
2018-09-02T16:33:04.018Z,923.61
2018-09-02T16:34:35.101Z,923.69
2018-09-02T16:36:06.911Z,923.63
2018-09-02T16:37:38.285Z,923.49
2018-09-02T16:40:42.042Z,923.44
2018-09-02T16:42:13.024Z,923.36
2018-09-02T16:43:44.608Z,923.34
2018-09-02T16:46:48.079Z,923.28
2018-09-02T16:48:19.363Z,923.30
2018-09-02T16:49:50.945Z,923.26
2018-09-02T16:51:22.829Z,923.25
2018-09-02T16:52:54.589Z,923.28
2018-09-02T16:54:25.712Z,923.34
2018-09-02T16:55:57.281Z,923.33
2018-09-02T16:57:28.864Z,923.33
2018-09-02T16:59:01.152Z,923.30
2018-09-02T17:00:32.033Z,923.28
2018-09-02T17:02:04.223Z,923.16
2018-09-02T17:03:35.199Z,923.10
2018-09-02T17:05:06.933Z,923.10
2018-09-02T17:06:38.367Z,923.19
2018-09-02T17:08:10.258Z,923.20
2018-09-02T17:09:42.077Z,923.19
2018-09-02T17:11:13.721Z,923.15
2018-09-02T17:14:16.284Z,923.14
2018-09-02T17:17:20.055Z,923.12
2018-09-02T17:18:51.037Z,923.06
2018-09-02T17:20:22.619Z,923.06
2018-09-02T17:23:26.433Z,923.05
2018-09-02T17:24:57.572Z,923.00
2018-09-02T17:29:33.071Z,923.02
2018-09-02T17:32:35.292Z,922.91
2018-09-02T17:34:06.876Z,922.90
2018-09-02T17:37:10.349Z,922.98
2018-09-02T17:38:42.177Z,922.87
2018-09-02T17:40:13.219Z,922.80
2018-09-02T17:43:17.099Z,922.83
2018-09-02T17:44:47.975Z,922.84
2018-09-02T17:46:19.866Z,922.73
2018-09-02T17:47:51.144Z,922.73
2018-09-02T17:49:22.828Z,922.65
2018-09-02T17:50:55.121Z,922.63
2018-09-02T17:53:57.682Z,922.67
2018-09-02T17:55:29.314Z,922.68
2018-09-02T18:00:04.019Z,922.70
2018-09-02T18:01:35.506Z,922.69
2018-09-02T18:03:06.985Z,922.69
2018-09-02T18:04:38.771Z,922.62
2018-09-02T18:07:42.191Z,922.64
2018-09-02T18:09:13.329Z,922.65
2018-09-02T18:10:44.903Z,922.53
2018-09-02T18:13:48.476Z,922.44
2018-09-02T18:21:26.098Z,922.23
2018-09-02T18:22:57.585Z,922.25
2018-09-02T18:26:00.957Z,922.22
2018-09-02T18:27:32.639Z,922.25
2018-09-02T18:29:03.925Z,922.24
2018-09-02T18:30:35.507Z,922.31
2018-09-02T18:33:38.928Z,922.28
2018-09-02T18:35:10.263Z,922.26
2018-09-02T18:38:13.432Z,922.28
2018-09-02T18:39:45.383Z,922.28
2018-09-02T18:41:16.597Z,922.30
2018-09-02T18:42:48.383Z,922.39
2018-09-02T18:45:52.192Z,922.40
2018-09-02T18:47:22.930Z,922.39
2018-09-02T18:48:54.515Z,922.44
2018-09-02T18:50:26.297Z,922.43
2018-09-02T18:51:58.471Z,922.54
2018-09-02T18:53:29.259Z,922.57
2018-09-02T18:55:01.150Z,922.59
2018-09-02T18:56:32.626Z,922.63
2018-09-02T18:58:04.311Z,922.71
2018-09-02T18:59:35.586Z,922.67
2018-09-02T19:01:07.167Z,922.66
2018-09-02T19:02:38.769Z,922.61
2018-09-02T19:04:10.430Z,922.71
2018-09-02T19:05:41.909Z,922.74
2018-09-02T19:07:13.489Z,922.60
2018-09-02T19:08:45.069Z,922.75
2018-09-02T19:10:17.049Z,922.82
2018-09-02T19:11:48.229Z,922.87
2018-09-02T19:13:20.013Z,922.82
2018-09-02T19:14:51.459Z,922.85
2018-09-02T19:16:23.126Z,922.86
2018-09-02T19:17:54.551Z,922.91
2018-09-02T19:19:26.336Z,922.94
2018-09-02T19:20:57.713Z,922.96
2018-09-02T19:22:29.387Z,923.02
2018-09-02T19:24:00.961Z,923.06
2018-09-02T19:25:32.450Z,922.99
2018-09-02T19:27:04.028Z,923.03
2018-09-02T19:28:35.810Z,922.99
2018-09-02T19:30:07.188Z,922.95
2018-09-02T19:33:10.348Z,922.82
2018-09-02T19:34:42.229Z,922.91
2018-09-02T19:36:13.508Z,922.90
2018-09-02T19:37:45.086Z,922.97
2018-09-02T19:39:16.665Z,922.95
2018-09-02T19:42:20.517Z,923.08
2018-09-02T19:43:51.403Z,923.16
2018-09-02T19:45:24.135Z,923.10
2018-09-02T19:46:54.644Z,923.07
2018-09-02T19:48:26.338Z,923.03
2018-09-02T19:49:57.718Z,923.10
2018-09-02T19:51:29.295Z,923.16
2018-09-02T19:53:00.873Z,923.16
2018-09-02T19:54:32.551Z,923.21
2018-09-02T19:56:04.029Z,923.28
2018-09-02T19:57:36.151Z,923.30
2018-09-02T19:59:07.185Z,923.29
2018-09-02T20:00:38.861Z,923.37
2018-09-02T20:02:10.339Z,923.37
2018-09-02T20:05:13.493Z,923.25
2018-09-02T20:06:45.220Z,923.26
2018-09-02T20:08:16.951Z,923.39
2018-09-02T20:09:48.224Z,923.40
2018-09-02T20:11:19.808Z,923.37
2018-09-02T20:12:51.530Z,923.34
2018-09-02T20:14:22.952Z,923.30
2018-09-02T20:15:54.528Z,923.34
2018-09-02T20:17:26.105Z,923.41
2018-09-02T20:18:58.003Z,923.48
2018-09-02T20:20:29.798Z,923.49
2018-09-02T20:22:00.835Z,923.45
2018-09-02T20:25:04.383Z,923.54
2018-09-02T20:28:07.740Z,923.59
2018-09-02T20:29:38.705Z,923.58
2018-09-02T20:34:13.530Z,923.55
2018-09-02T20:35:45.000Z,923.59
2018-09-02T20:37:16.575Z,923.52
2018-09-02T20:38:48.147Z,923.60
2018-09-02T20:40:20.173Z,923.55
2018-09-02T20:41:51.295Z,923.59
2018-09-02T20:43:22.868Z,923.52
2018-09-02T20:44:54.443Z,923.50
2018-09-02T20:47:57.590Z,923.62
2018-09-02T20:49:29.163Z,923.63
2018-09-02T20:52:32.313Z,923.62
2018-09-02T20:54:03.881Z,923.61
2018-09-02T20:55:35.455Z,923.64
2018-09-02T20:57:07.027Z,923.67
2018-09-02T20:58:38.601Z,923.66
2018-09-02T21:00:10.424Z,923.69
2018-09-02T21:01:41.746Z,923.76
2018-09-02T21:03:13.320Z,923.76
2018-09-02T21:04:44.892Z,923.72
2018-09-02T21:06:16.565Z,923.76
2018-09-02T21:07:48.037Z,923.80
2018-09-02T21:09:19.609Z,923.82
2018-09-02T21:10:51.385Z,923.78
2018-09-02T21:12:22.804Z,923.79
2018-09-02T21:13:54.328Z,923.77
2018-09-02T21:15:25.901Z,923.80
2018-09-02T21:16:57.475Z,923.76
2018-09-02T21:18:29.447Z,923.80
2018-09-02T21:20:00.617Z,923.86
2018-09-02T21:21:32.191Z,923.86
2018-09-02T21:23:03.768Z,923.85
2018-09-02T21:24:35.336Z,923.84
2018-09-02T21:26:06.909Z,923.82
2018-09-02T21:27:38.482Z,923.84
2018-09-02T21:29:10.054Z,923.84
2018-09-02T21:30:41.927Z,923.79
2018-09-02T21:32:13.199Z,923.85
2018-09-02T21:33:44.773Z,923.87
2018-09-02T21:35:16.345Z,923.91